Time;durP1;ratioP1;P1;durP2;ratioP2;P2;SDS_P1;SDS_P2;PMS_P1;PMS_P2;Temp;Humidity;BMP_temperature;BMP_pressure;BME280_temperature;BME280_humidity;BME280_pressure;Samples;Min_cycle;Max_cycle;Signal;HPM_P1;HPM_P2
2022/11/19 00:02:11;;;;;;;38.50;13.97;;;4.10;99.90;;;;;;5090127;28;20144;-76
2022/11/19 00:04:37;;;;;;;28.17;13.00;;;4.10;99.90;;;;;;5092349;28;20032;-76
2022/11/19 00:07:03;;;;;;;35.10;14.47;;;4.10;99.90;;;;;;5089722;28;20032;-80
2022/11/19 00:09:29;;;;;;;27.37;12.43;;;4.10;99.90;;;;;;5085365;28;20059;-76
2022/11/19 00:14:39;;;;;;;22.10;10.60;;;4.00;99.90;;;;;;5092264;28;20077;-80
2022/11/19 00:17:04;;;;;;;28.80;12.60;;;4.00;99.90;;;;;;5091568;28;20024;-75
2022/11/19 00:19:30;;;;;;;29.57;12.10;;;3.90;99.90;;;;;;5086351;28;20140;-76
2022/11/19 00:21:56;;;;;;;31.40;13.70;;;3.90;99.90;;;;;;5091608;28;20028;-75
2022/11/19 00:24:25;;;;;;;20.33;9.13;;;3.90;99.90;;;;;;5092861;28;20020;-76
2022/11/19 00:26:51;;;;;;;26.60;11.98;;;4.00;99.90;;;;;;5083861;28;20032;-76
2022/11/19 00:29:17;;;;;;;26.17;10.43;;;4.00;99.90;;;;;;5095709;28;20024;-75
2022/11/19 00:31:43;;;;;;;25.57;11.50;;;3.90;99.90;;;;;;5088871;28;20029;-76
2022/11/19 00:34:10;;;;;;;24.67;11.67;;;3.90;99.90;;;;;;5090142;28;20021;-75
2022/11/19 00:36:36;;;;;;;27.65;12.40;;;3.90;99.90;;;;;;5092990;28;20012;-75
2022/11/19 00:39:02;;;;;;;18.40;8.83;;;3.90;99.90;;;;;;5096004;28;20042;-75
2022/11/19 00:41:27;;;;;;;26.90;12.00;;;3.80;99.90;;;;;;5096449;28;20031;-76
2022/11/19 00:43:54;;;;;;;25.50;11.83;;;3.80;99.90;;;;;;5094637;28;20055;-76
2022/11/19 00:46:23;;;;;;;33.17;11.40;;;3.80;99.90;;;;;;5096497;28;20040;-75
2022/11/19 00:48:50;;;;;;;32.65;11.93;;;3.80;99.90;;;;;;5095160;28;20036;-75
2022/11/19 00:51:18;;;;;;;25.40;11.18;;;3.90;99.90;;;;;;5094001;28;20092;-79
2022/11/19 00:53:44;;;;;;;26.70;12.23;;;3.90;99.90;;;;;;5087229;28;20119;-76
2022/11/19 00:56:12;;;;;;;29.08;10.93;;;3.80;99.90;;;;;;5093234;28;20343;-82
2022/11/19 00:58:39;;;;;;;30.05;12.38;;;3.80;99.90;;;;;;5088635;28;20038;-75
2022/11/19 01:01:06;;;;;;;27.42;12.27;;;3.80;99.90;;;;;;5093429;28;20024;-80
2022/11/19 01:03:32;;;;;;;28.05;12.02;;;3.80;99.90;;;;;;5093990;28;20126;-75
2022/11/19 01:05:58;;;;;;;31.17;12.48;;;3.80;99.90;;;;;;5095480;28;20077;-76
2022/11/19 01:08:24;;;;;;;29.13;11.90;;;3.80;99.90;;;;;;5093673;28;20039;-76
2022/11/19 01:10:50;;;;;;;22.33;10.90;;;3.80;99.90;;;;;;5096152;28;20407;-75
2022/11/19 01:13:34;;;;;;;25.57;12.23;;;3.80;99.90;;;;;;5093091;28;20054;-75
2022/11/19 01:16:15;;;;;;;34.70;11.82;;;3.80;99.90;;;;;;5093528;28;20024;-75
2022/11/19 01:18:43;;;;;;;24.60;12.45;;;3.90;99.90;;;;;;5095927;28;20034;-76
2022/11/19 01:21:10;;;;;;;32.38;11.98;;;3.80;99.90;;;;;;5092963;28;20027;-75
2022/11/19 01:23:37;;;;;;;35.88;13.45;;;3.80;99.90;;;;;;5095183;28;20107;-75
2022/11/19 01:26:03;;;;;;;24.00;11.05;;;3.80;99.90;;;;;;5094070;28;20391;-79
2022/11/19 01:28:30;;;;;;;26.67;10.83;;;3.80;99.90;;;;;;5095009;28;20028;-79
2022/11/19 01:30:56;;;;;;;28.45;11.07;;;3.80;99.90;;;;;;5095768;28;20113;-76
2022/11/19 01:33:22;;;;;;;33.07;13.37;;;3.80;99.90;;;;;;5095496;28;20032;-76
2022/11/19 01:36:02;;;;;;;32.80;13.63;;;3.80;99.90;;;;;;5095336;28;20269;-75
2022/11/19 01:38:29;;;;;;;36.03;13.32;;;3.80;99.90;;;;;;5093754;28;20028;-75
2022/11/19 01:40:55;;;;;;;;;;;3.70;99.90;;;;;;5096358;28;20103;-75
2022/11/19 01:43:59;;;;;;;42.38;14.35;;;3.70;99.90;;;;;;5094256;28;20317;-86
2022/11/19 01:46:29;;;;;;;32.08;13.90;;;3.70;99.90;;;;;;5090406;28;20035;-75
2022/11/19 01:49:09;;;;;;;32.67;14.90;;;3.70;99.90;;;;;;5091480;28;20148;-75
2022/11/19 01:51:40;;;;;;;26.40;11.13;;;3.70;99.90;;;;;;5094475;28;20109;-76
2022/11/19 01:54:24;;;;;;;32.50;14.10;;;3.60;99.90;;;;;;5087808;28;20036;-75
2022/11/19 01:56:50;;;;;;;33.38;14.93;;;3.50;99.90;;;;;;5090529;28;20036;-75
2022/11/19 01:59:17;;;;;;;28.40;11.75;;;3.50;99.90;;;;;;5089414;28;20036;-76
2022/11/19 02:01:43;;;;;;;;;;;3.50;99.90;;;;;;5088059;28;20026;-78
2022/11/19 02:04:10;;;;;;;28.93;12.03;;;3.50;99.90;;;;;;5092010;28;20014;-75
2022/11/19 02:06:37;;;;;;;37.40;15.43;;;3.40;99.90;;;;;;5089557;28;20613;-75
2022/11/19 02:09:03;;;;;;;;;;;3.40;99.90;;;;;;5086893;28;20039;-76
2022/11/19 02:12:10;;;;;;;40.08;14.98;;;3.40;99.90;;;;;;5086847;28;19908;-76
2022/11/19 02:14:44;;;;;;;31.02;14.25;;;3.40;99.90;;;;;;5063386;28;20032;-77
2022/11/19 02:17:18;;;;;;;34.03;15.73;;;3.30;99.90;;;;;;5058788;28;20442;-76
2022/11/19 02:20:21;;;;;;;30.98;14.10;;;3.30;99.90;;;;;;5059775;28;20200;-75
2022/11/19 02:22:49;;;;;;;40.67;14.65;;;3.40;99.90;;;;;;5052379;28;20035;-75
2022/11/19 02:25:39;;;;;;;35.28;15.60;;;3.30;99.90;;;;;;5057347;28;20033;-76
2022/11/19 02:28:31;;;;;;;36.65;16.98;;;3.40;99.90;;;;;;5050197;28;20025;-81
2022/11/19 02:31:04;;;;;;;34.83;16.23;;;3.40;99.90;;;;;;5042133;28;20347;-75
2022/11/19 02:33:44;;;;;;;35.25;14.68;;;3.40;99.90;;;;;;5064206;28;20033;-76
2022/11/19 02:36:36;;;;;;;30.10;13.93;;;3.40;99.90;;;;;;5057116;28;20159;-76
2022/11/19 02:39:18;;;;;;;20.83;9.40;;;3.30;99.90;;;;;;5067882;28;20029;-77
2022/11/19 02:41:50;;;;;;;32.42;15.02;;;3.20;99.90;;;;;;5052827;28;20051;-75
2022/11/19 02:47:19;;;;;;;35.22;16.35;;;3.20;99.90;;;;;;5058732;28;20032;-77
2022/11/19 02:49:46;;;;;;;41.25;16.83;;;3.10;99.90;;;;;;5085104;28;20119;-75
2022/11/19 02:52:14;;;;;;;40.42;18.02;;;3.20;99.90;;;;;;5094021;28;20039;-75
2022/11/19 02:54:40;;;;;;;34.97;15.75;;;3.20;99.90;;;;;;5093017;28;20288;-75
2022/11/19 02:57:07;;;;;;;36.03;16.97;;;3.20;99.90;;;;;;5093333;28;20089;-77
2022/11/19 03:05:20;;;;;;;35.85;17.38;;;3.10;99.90;;;;;;5089277;28;20093;-75
2022/11/19 03:07:47;;;;;;;34.40;16.20;;;3.00;99.90;;;;;;5091522;28;20042;-75
2022/11/19 03:10:14;;;;;;;42.78;17.73;;;3.00;99.90;;;;;;5085030;28;20038;-74
2022/11/19 03:12:55;;;;;;;40.33;17.45;;;3.00;99.90;;;;;;5091931;28;20032;-75
2022/11/19 03:18:50;;;;;;;31.90;14.80;;;2.90;99.90;;;;;;5087901;28;20085;-77
2022/11/19 03:21:39;;;;;;;39.38;15.55;;;2.90;99.90;;;;;;5090590;28;20039;-75
2022/11/19 03:24:14;;;;;;;29.95;13.32;;;2.90;99.90;;;;;;5092584;28;20034;-75
2022/11/19 03:26:49;;;;;;;38.33;15.30;;;2.90;99.90;;;;;;5089079;28;20111;-75
2022/11/19 03:29:16;;;;;;;37.42;15.40;;;2.80;99.90;;;;;;5094524;28;20016;-75
2022/11/19 03:31:48;;;;;;;40.10;17.40;;;2.80;99.90;;;;;;5093545;28;20060;-75
2022/11/19 03:34:19;;;;;;;35.67;15.45;;;2.80;99.90;;;;;;5083903;28;20375;-76
2022/11/19 03:36:48;;;;;;;37.17;16.83;;;2.90;99.90;;;;;;5091834;28;20028;-76
2022/11/19 03:39:16;;;;;;;32.50;14.43;;;2.80;99.90;;;;;;5087996;28;20028;-75
2022/11/19 03:41:46;;;;;;;32.85;14.02;;;2.70;99.90;;;;;;5093072;28;20023;-75
2022/11/19 03:44:14;;;;;;;33.20;15.48;;;2.80;99.90;;;;;;5092371;28;20410;-75
2022/11/19 03:46:42;;;;;;;30.33;13.57;;;2.70;99.90;;;;;;5093487;28;20016;-75
2022/11/19 03:49:09;;;;;;;28.50;14.32;;;2.60;99.90;;;;;;5091179;28;20028;-75
2022/11/19 03:51:49;;;;;;;30.60;15.43;;;2.60;99.90;;;;;;5092578;28;20035;-75
2022/11/19 03:54:15;;;;;;;26.27;13.93;;;2.50;99.90;;;;;;5092444;28;20804;-75
2022/11/19 03:56:41;;;;;;;30.00;14.57;;;2.50;99.90;;;;;;5092273;28;20055;-74
2022/11/19 03:59:10;;;;;;;32.10;12.65;;;2.50;99.90;;;;;;5089692;28;20081;-85
2022/11/19 04:01:36;;;;;;;34.17;14.75;;;2.40;99.90;;;;;;5090388;28;20039;-75
2022/11/19 04:06:47;;;;;;;30.15;14.32;;;2.40;99.90;;;;;;5088063;28;20131;-75
2022/11/19 04:09:13;;;;;;;24.83;11.53;;;2.30;99.90;;;;;;5086455;28;20032;-75
2022/11/19 04:11:39;;;;;;;31.40;13.23;;;2.30;99.90;;;;;;5088641;28;20261;-75
2022/11/19 04:14:05;;;;;;;32.47;14.70;;;2.40;99.90;;;;;;5093158;28;20429;-76
2022/11/19 04:16:30;;;;;;;34.93;14.73;;;2.40;99.90;;;;;;5090410;28;20024;-75
2022/11/19 04:18:56;;;;;;;17.47;8.43;;;2.40;99.90;;;;;;5093377;28;20498;-75
2022/11/19 04:21:22;;;;;;;31.97;14.10;;;2.40;99.90;;;;;;5092955;28;20043;-76
2022/11/19 04:23:48;;;;;;;28.17;12.10;;;2.40;99.90;;;;;;5092812;28;20078;-75
2022/11/19 04:26:13;;;;;;;26.37;12.97;;;2.40;99.90;;;;;;5090886;28;20318;-79
2022/11/19 04:28:39;;;;;;;21.37;10.37;;;2.40;99.90;;;;;;5092325;28;20430;-75
2022/11/19 04:31:05;;;;;;;19.53;9.13;;;2.40;99.90;;;;;;5087879;28;20039;-84
2022/11/19 04:33:31;;;;;;;12.67;6.07;;;2.40;99.90;;;;;;5092402;28;20513;-85
2022/11/19 04:35:56;;;;;;;25.40;12.27;;;2.40;99.90;;;;;;5089876;28;20031;-77
2022/11/19 04:38:22;;;;;;;28.63;14.00;;;2.40;99.90;;;;;;5089522;28;20024;-76
2022/11/19 04:40:48;;;;;;;28.33;13.20;;;2.30;99.90;;;;;;5088490;28;20423;-76
2022/11/19 04:43:13;;;;;;;26.70;11.40;;;2.40;99.90;;;;;;5091190;28;20112;-81
2022/11/19 04:45:39;;;;;;;36.43;12.60;;;2.40;99.90;;;;;;5092272;28;20034;-75
2022/11/19 04:48:05;;;;;;;36.57;13.67;;;2.40;99.90;;;;;;5092100;28;20031;-75
2022/11/19 04:50:31;;;;;;;25.33;11.57;;;2.40;99.90;;;;;;5092039;28;20105;-75
2022/11/19 04:52:58;;;;;;;32.73;14.40;;;2.40;99.90;;;;;;5090308;28;20040;-75
2022/11/19 04:55:24;;;;;;;34.03;14.27;;;2.40;99.90;;;;;;5092782;28;20414;-75
2022/11/19 04:57:51;;;;;;;27.87;13.90;;;2.40;99.90;;;;;;5089309;28;20024;-84
2022/11/19 05:00:17;;;;;;;5.45;2.75;;;2.30;99.90;;;;;;5092482;28;20073;-75
2022/11/19 05:02:44;;;;;;;22.00;10.67;;;2.30;99.90;;;;;;5083728;28;20028;-75
2022/11/19 05:05:10;;;;;;;23.95;11.23;;;2.20;99.90;;;;;;5089936;28;20306;-84
2022/11/19 05:07:36;;;;;;;27.97;13.47;;;2.20;99.90;;;;;;5084102;28;20036;-75
2022/11/19 05:10:02;;;;;;;25.13;11.33;;;2.10;99.90;;;;;;5089888;28;20119;-75
2022/11/19 05:12:28;;;;;;;28.15;12.10;;;2.00;99.90;;;;;;5086805;28;20403;-75
2022/11/19 05:14:54;;;;;;;28.97;11.70;;;2.10;99.90;;;;;;5092399;28;20093;-76
2022/11/19 05:17:20;;;;;;;19.13;10.15;;;2.10;99.90;;;;;;5092590;28;20052;-76
2022/11/19 05:19:45;;;;;;;16.37;7.93;;;2.10;99.90;;;;;;5089034;28;20684;-75
2022/11/19 05:22:11;;;;;;;25.33;11.73;;;2.10;99.90;;;;;;5090684;28;20419;-76
2022/11/19 05:24:37;;;;;;;30.37;11.80;;;2.00;99.90;;;;;;5096755;28;20415;-77
2022/11/19 05:27:03;;;;;;;28.87;10.97;;;2.00;99.90;;;;;;5096173;28;20031;-76
2022/11/19 05:29:29;;;;;;;15.77;7.80;;;2.00;99.90;;;;;;5095263;28;20411;-76
2022/11/19 05:31:55;;;;;;;29.87;12.40;;;2.00;99.90;;;;;;5095807;28;20039;-76
2022/11/19 05:34:20;;;;;;;28.50;12.37;;;2.00;99.90;;;;;;5093642;28;20024;-75
2022/11/19 05:36:46;;;;;;;26.90;11.97;;;2.00;99.90;;;;;;5094597;28;20032;-76
2022/11/19 05:39:12;;;;;;;23.27;9.73;;;1.90;99.90;;;;;;5092921;28;20048;-75
2022/11/19 05:41:38;;;;;;;22.97;11.03;;;2.00;99.90;;;;;;5095717;28;20028;-76
2022/11/19 05:44:04;;;;;;;20.90;10.03;;;2.00;99.90;;;;;;5095953;28;20032;-76
2022/11/19 05:46:29;;;;;;;23.00;11.47;;;2.00;99.90;;;;;;5095273;28;20032;-77
2022/11/19 05:48:55;;;;;;;22.63;10.80;;;2.00;99.90;;;;;;5094365;28;20275;-76
2022/11/19 05:51:21;;;;;;;20.33;9.37;;;2.00;99.90;;;;;;5095009;28;20035;-76
2022/11/19 05:53:47;;;;;;;25.63;11.57;;;1.90;99.90;;;;;;5089257;28;20304;-76
2022/11/19 05:56:12;;;;;;;22.50;11.43;;;1.90;99.90;;;;;;5095808;28;20032;-75
2022/11/19 05:58:38;;;;;;;13.97;6.97;;;1.80;99.90;;;;;;5096188;28;20424;-84
2022/11/19 06:01:04;;;;;;;17.07;6.33;;;1.80;99.90;;;;;;5094685;28;20438;-75
2022/11/19 06:03:30;;;;;;;17.48;8.90;;;1.90;99.90;;;;;;5093806;28;20092;-75
2022/11/19 06:05:56;;;;;;;24.95;10.40;;;1.80;99.90;;;;;;5092551;28;20055;-75
2022/11/19 06:08:21;;;;;;;22.83;10.13;;;1.80;99.90;;;;;;5095670;28;20371;-76
2022/11/19 06:10:47;;;;;;;28.10;11.67;;;1.70;99.90;;;;;;5090552;28;20327;-75
2022/11/19 06:13:13;;;;;;;26.90;11.90;;;1.70;99.90;;;;;;5089327;28;20111;-76
2022/11/19 06:15:39;;;;;;;25.15;7.68;;;1.70;99.90;;;;;;5093698;28;20434;-76
2022/11/19 06:18:04;;;;;;;22.03;9.67;;;1.70;99.90;;;;;;5090805;28;20028;-76
2022/11/19 06:20:30;;;;;;;17.90;6.97;;;1.60;99.90;;;;;;5096033;28;20031;-76
2022/11/19 06:22:56;;;;;;;26.83;9.93;;;1.60;99.90;;;;;;5093390;28;20047;-76
2022/11/19 06:25:23;;;;;;;23.10;10.40;;;1.60;99.90;;;;;;5094347;28;20063;-75
2022/11/19 06:27:48;;;;;;;26.13;11.35;;;1.60;99.90;;;;;;5095680;28;20445;-75
2022/11/19 06:30:15;;;;;;;19.60;9.70;;;1.50;99.90;;;;;;5095648;28;20032;-75
2022/11/19 06:32:41;;;;;;;28.80;10.80;;;1.40;99.90;;;;;;5088757;28;20069;-80
2022/11/19 06:35:07;;;;;;;22.15;10.05;;;1.50;99.90;;;;;;5095237;28;20058;-76
2022/11/19 06:37:33;;;;;;;20.25;9.52;;;1.40;99.90;;;;;;5095623;28;20035;-76
2022/11/19 06:39:59;;;;;;;18.77;9.80;;;1.30;99.90;;;;;;5091488;28;20027;-76
2022/11/19 06:42:37;;;;;;;25.20;11.03;;;1.40;99.90;;;;;;5087150;28;20017;-76
2022/11/19 06:45:08;;;;;;;27.90;10.40;;;1.40;99.90;;;;;;5092971;28;20036;-75
2022/11/19 06:47:34;;;;;;;19.70;9.85;;;1.40;99.90;;;;;;5093099;28;20024;-76
2022/11/19 06:50:00;;;;;;;31.27;10.93;;;1.40;99.90;;;;;;5094527;28;20024;-76
2022/11/19 06:52:26;;;;;;;16.50;7.70;;;1.30;99.90;;;;;;5090598;28;20027;-75
2022/11/19 06:54:51;;;;;;;24.97;11.30;;;1.30;99.90;;;;;;5093914;28;20048;-75
2022/11/19 06:57:17;;;;;;;25.17;11.13;;;1.30;99.90;;;;;;5090810;28;20028;-83
2022/11/19 06:59:43;;;;;;;21.87;9.53;;;1.40;99.90;;;;;;5093765;28;20461;-75
2022/11/19 07:02:11;;;;;;;23.87;9.97;;;1.40;99.90;;;;;;5090083;28;20028;-75
2022/11/19 07:04:36;;;;;;;15.07;8.35;;;1.30;99.90;;;;;;5094798;28;20089;-75
2022/11/19 07:07:03;;;;;;;21.90;9.70;;;1.30;99.90;;;;;;5091064;28;20024;-74
2022/11/19 07:09:29;;;;;;;18.65;8.48;;;1.10;99.90;;;;;;5093838;28;20076;-80
2022/11/19 07:11:54;;;;;;;5.03;2.90;;;1.10;99.90;;;;;;5093455;28;20024;-75
2022/11/19 07:14:20;;;;;;;12.77;6.53;;;1.00;99.90;;;;;;5092499;28;20031;-76
2022/11/19 07:16:46;;;;;;;23.83;9.70;;;1.00;99.90;;;;;;5091758;28;20099;-76
2022/11/19 07:19:11;;;;;;;25.83;10.00;;;0.90;99.90;;;;;;5085726;28;20116;-75
2022/11/19 07:21:37;;;;;;;22.10;8.57;;;1.00;99.90;;;;;;5088889;28;20020;-76
2022/11/19 07:24:06;;;;;;;23.30;10.33;;;0.90;99.90;;;;;;5087107;28;20028;-76
2022/11/19 07:26:33;;;;;;;20.70;9.82;;;0.90;99.90;;;;;;5087362;28;20032;-76
2022/11/19 07:29:00;;;;;;;25.08;10.02;;;0.80;99.90;;;;;;5089346;28;20434;-79
2022/11/19 07:31:27;;;;;;;21.20;7.97;;;0.90;99.90;;;;;;5088816;28;20032;-75
2022/11/19 07:33:52;;;;;;;24.27;10.70;;;0.90;99.90;;;;;;5092492;28;20028;-75
2022/11/19 07:36:18;;;;;;;16.23;7.43;;;0.80;99.90;;;;;;5091662;28;20035;-76
2022/11/19 07:38:45;;;;;;;25.70;9.87;;;0.80;99.90;;;;;;5090142;28;20028;-79
2022/11/19 07:43:55;;;;;;;25.98;9.45;;;0.70;99.90;;;;;;5093728;28;20525;-78
2022/11/19 07:46:20;;;;;;;22.33;9.00;;;0.70;99.90;;;;;;5085526;28;20095;-78
2022/11/19 07:48:46;;;;;;;13.70;6.43;;;0.70;99.90;;;;;;5093763;28;20054;-79
2022/11/19 07:51:12;;;;;;;22.33;9.80;;;0.60;99.90;;;;;;5091164;28;20020;-76
2022/11/19 07:53:38;;;;;;;25.10;10.00;;;0.60;99.90;;;;;;5090264;28;20028;-76
2022/11/19 07:56:04;;;;;;;20.47;8.27;;;0.60;99.90;;;;;;5090198;28;20035;-75
2022/11/19 07:58:29;;;;;;;23.80;8.67;;;0.60;99.90;;;;;;5089138;28;20035;-75
2022/11/19 08:00:55;;;;;;;22.33;9.70;;;0.60;99.90;;;;;;5083874;28;20022;-78
2022/11/19 08:03:21;;;;;;;17.43;7.93;;;0.60;99.90;;;;;;5088109;28;20661;-77
2022/11/19 08:05:46;;;;;;;26.57;10.97;;;0.60;99.90;;;;;;5090462;28;20074;-75
2022/11/19 08:08:12;;;;;;;20.30;9.63;;;0.50;99.90;;;;;;5091384;28;20084;-75
2022/11/19 08:10:38;;;;;;;24.00;10.20;;;0.50;99.90;;;;;;5092969;28;20111;-79
2022/11/19 08:13:04;;;;;;;27.23;11.80;;;0.60;99.90;;;;;;5089644;28;20040;-76
2022/11/19 08:15:31;;;;;;;29.90;12.77;;;0.50;99.90;;;;;;5093732;28;20399;-79
2022/11/19 08:18:12;;;;;;;15.77;7.88;;;0.50;99.90;;;;;;5091369;28;20415;-75
2022/11/19 08:20:47;;;;;;;35.72;12.27;;;0.50;99.90;;;;;;5089712;28;20306;-76
2022/11/19 08:23:13;;;;;;;27.77;10.98;;;0.50;99.90;;;;;;5091879;28;20051;-76
2022/11/19 08:25:43;;;;;;;19.63;8.45;;;0.50;99.90;;;;;;5091566;28;20296;-80
2022/11/19 08:28:09;;;;;;;35.67;12.18;;;0.50;99.90;;;;;;5089054;28;20374;-79
2022/11/19 08:30:35;;;;;;;;;;;0.50;99.90;;;;;;5093208;28;20083;-76
2022/11/19 08:33:01;;;;;;;24.75;10.75;;;0.60;99.90;;;;;;5091890;28;20015;-81
2022/11/19 08:35:26;;;;;;;24.03;9.90;;;0.50;99.90;;;;;;5091953;28;20433;-80
2022/11/19 08:37:52;;;;;;;25.73;9.93;;;0.50;99.90;;;;;;5087059;28;20085;-76
2022/11/19 08:40:18;;;;;;;18.83;8.57;;;0.50;99.90;;;;;;5089755;28;20020;-77
2022/11/19 08:42:59;;;;;;;28.57;12.03;;;0.50;99.90;;;;;;5079515;28;20050;-75
2022/11/19 08:45:32;;;;;;;25.30;10.85;;;0.40;99.90;;;;;;5088699;28;20260;-79
2022/11/19 08:48:00;;;;;;;26.63;10.82;;;0.40;99.90;;;;;;5085657;28;20307;-78
2022/11/19 08:50:26;;;;;;;31.83;11.85;;;0.40;99.90;;;;;;5089426;28;20427;-76
2022/11/19 08:52:57;;;;;;;24.80;10.82;;;0.40;99.90;;;;;;5092915;28;20036;-76
2022/11/19 08:55:23;;;;;;;26.38;10.70;;;0.40;99.90;;;;;;5090088;28;20419;-76
2022/11/19 08:57:49;;;;;;;31.05;11.23;;;0.50;99.90;;;;;;5094616;28;20136;-79
2022/11/19 09:00:15;;;;;;;23.27;10.17;;;0.60;99.90;;;;;;5094713;28;20041;-78
2022/11/19 09:02:41;;;;;;;26.00;10.73;;;0.60;99.90;;;;;;5089231;28;20035;-78
2022/11/19 09:05:08;;;;;;;24.27;10.97;;;0.60;99.90;;;;;;5094677;28;20027;-75
2022/11/19 09:07:33;;;;;;;22.23;9.75;;;0.60;99.90;;;;;;5096660;28;20342;-76
2022/11/19 09:09:59;;;;;;;23.83;7.37;;;0.70;99.90;;;;;;5096323;28;20035;-80
2022/11/19 09:12:28;;;;;;;16.00;7.27;;;0.70;99.90;;;;;;5095821;28;20040;-74
2022/11/19 09:14:53;;;;;;;19.90;9.38;;;0.80;99.90;;;;;;5093633;28;20032;-75
2022/11/19 09:17:19;;;;;;;20.57;8.43;;;0.80;99.90;;;;;;5095277;28;20206;-78
2022/11/19 09:19:44;;;;;;;21.37;8.90;;;0.80;99.90;;;;;;5095349;28;20455;-75
2022/11/19 09:22:10;;;;;;;24.67;10.23;;;0.70;99.90;;;;;;5089301;28;20039;-75
2022/11/19 09:24:36;;;;;;;22.07;9.73;;;0.70;99.90;;;;;;5095311;28;20031;-75
2022/11/19 09:27:01;;;;;;;16.93;7.80;;;0.80;99.90;;;;;;5092373;28;20116;-76
2022/11/19 09:29:27;;;;;;;16.13;6.67;;;0.80;99.90;;;;;;5098727;28;20111;-75
2022/11/19 09:31:53;;;;;;;18.77;8.80;;;0.80;99.90;;;;;;5089882;28;20314;-76
2022/11/19 09:34:18;;;;;;;24.00;8.50;;;0.80;99.90;;;;;;5096177;28;20378;-79
2022/11/19 09:36:44;;;;;;;21.17;9.30;;;0.80;99.90;;;;;;5096109;28;20408;-76
2022/11/19 09:39:10;;;;;;;18.27;8.43;;;0.90;99.90;;;;;;5095847;28;20056;-79
2022/11/19 09:41:54;;;;;;;14.07;5.63;;;0.90;99.90;;;;;;5093015;28;20020;-76
2022/11/19 09:44:31;;;;;;;21.58;9.07;;;0.90;99.90;;;;;;5093662;28;20255;-77
2022/11/19 09:47:18;;;;;;;22.13;7.97;;;1.00;99.90;;;;;;5100714;28;20099;-79
2022/11/19 09:50:02;;;;;;;17.45;7.50;;;1.10;99.90;;;;;;5095350;28;20105;-76
2022/11/19 09:52:32;;;;;;;23.48;9.05;;;1.10;99.90;;;;;;5093939;28;20348;-76
2022/11/19 09:54:59;;;;;;;22.13;9.80;;;1.10;99.90;;;;;;5094955;28;20106;-76
2022/11/19 09:57:42;;;;;;;28.27;8.15;;;1.10;99.90;;;;;;5092064;28;20731;-79
2022/11/19 10:00:09;;;;;;;24.25;9.20;;;1.20;99.90;;;;;;5094812;28;20146;-78
2022/11/19 10:02:34;;;;;;;17.77;7.57;;;1.20;99.90;;;;;;5092088;28;20035;-75
2022/11/19 10:05:00;;;;;;;19.73;8.83;;;1.30;99.90;;;;;;5095308;28;20689;-79
2022/11/19 10:07:49;;;;;;;20.30;7.80;;;1.30;99.90;;;;;;5088940;28;20027;-76
2022/11/19 10:10:40;;;;;;;19.63;8.65;;;1.40;99.90;;;;;;5095314;28;20031;-81
2022/11/19 10:13:26;;;;;;;16.75;8.48;;;1.40;99.90;;;;;;5111445;28;20032;-75
2022/11/19 10:15:54;;;;;;;14.63;7.65;;;1.50;99.90;;;;;;5091182;28;20132;-76
2022/11/19 10:18:46;;;;;;;19.83;8.70;;;1.70;99.90;;;;;;5093437;28;20028;-74
2022/11/19 10:21:28;;;;;;;16.17;7.40;;;1.80;99.90;;;;;;5091585;28;20584;-75
2022/11/19 10:24:07;;;;;;;13.40;6.60;;;1.70;99.90;;;;;;5095076;28;20022;-75
2022/11/19 10:26:38;;;;;;;16.83;8.80;;;1.90;99.90;;;;;;5088264;28;20016;-76
2022/11/19 10:29:16;;;;;;;13.20;5.85;;;1.90;99.90;;;;;;5083522;28;20393;-75
2022/11/19 10:31:47;;;;;;;17.02;7.68;;;1.90;99.90;;;;;;5083423;28;20040;-77
2022/11/19 10:34:32;;;;;;;21.17;8.15;;;1.90;99.90;;;;;;5087192;28;20474;-76
2022/11/19 10:37:09;;;;;;;16.48;7.55;;;1.90;99.90;;;;;;5081421;28;20039;-75
2022/11/19 10:39:42;;;;;;;19.08;7.07;;;2.00;99.90;;;;;;5079198;28;20380;-78
2022/11/19 10:42:24;;;;;;;18.10;7.82;;;2.00;99.90;;;;;;5082417;28;20437;-75
2022/11/19 10:44:50;;;;;;;19.40;8.75;;;1.90;99.90;;;;;;5079255;28;20037;-75
2022/11/19 10:47:17;;;;;;;21.43;7.53;;;2.00;99.90;;;;;;5078640;28;20032;-75
2022/11/19 10:49:44;;;;;;;13.02;5.00;;;2.10;99.90;;;;;;5078765;28;20032;-75
2022/11/19 10:52:32;;;;;;;17.05;8.75;;;2.10;99.90;;;;;;5078507;28;20028;-75
2022/11/19 10:55:26;;;;;;;13.07;5.60;;;2.10;99.90;;;;;;5089405;28;20028;-77
2022/11/19 10:58:19;;;;;;;20.90;7.47;;;2.20;99.90;;;;;;5064035;28;20033;-75
2022/11/19 11:00:46;;;;;;;24.25;8.05;;;2.10;99.90;;;;;;5084257;28;20103;-76
2022/11/19 11:03:38;;;;;;;14.82;6.47;;;2.20;99.90;;;;;;5063059;28;20099;-75
2022/11/19 11:06:08;;;;;;;16.70;7.55;;;2.30;99.90;;;;;;5081581;28;20028;-75
2022/11/19 11:08:48;;;;;;;9.00;5.25;;;2.40;99.90;;;;;;5078150;28;20025;-80
2022/11/19 11:14:50;;;;;;;15.88;6.88;;;2.30;99.90;;;;;;5081155;28;20043;-76
2022/11/19 11:16:57;;;;;;;17.52;7.95;;;2.30;99.90;;;;;;5078689;28;20178;-75
2022/11/19 11:19:24;;;;;;;16.25;6.88;;;2.40;99.90;;;;;;5079382;28;20033;-75
2022/11/19 11:21:51;;;;;;;;;;;2.40;99.90;;;;;;5077970;28;20035;-75
2022/11/19 11:24:16;;;;;;;12.98;6.53;;;2.40;99.90;;;;;;5076350;28;20046;-75
2022/11/19 11:26:42;;;;;;;8.87;4.33;;;2.40;99.90;;;;;;5081120;28;20103;-76
2022/11/19 11:29:11;;;;;;;14.63;6.40;;;2.50;99.90;;;;;;5076903;28;20027;-76
2022/11/19 11:31:42;;;;;;;17.88;6.55;;;2.50;99.90;;;;;;5081770;28;20030;-77
2022/11/19 11:34:35;;;;;;;11.55;4.95;;;2.60;99.90;;;;;;5083917;28;20024;-81
2022/11/19 11:37:04;;;;;;;13.35;6.20;;;2.60;99.90;;;;;;5087129;28;20032;-75
2022/11/19 11:39:35;;;;;;;16.15;6.22;;;2.70;99.90;;;;;;5090228;28;20315;-76
2022/11/19 11:42:01;;;;;;;12.27;5.32;;;2.80;99.90;;;;;;5082857;28;20024;-76
2022/11/19 11:44:31;;;;;;;11.30;5.20;;;2.90;99.90;;;;;;5087950;28;20024;-76
2022/11/19 11:47:01;;;;;;;10.40;5.15;;;3.00;99.90;;;;;;5093120;28;20101;-76
2022/11/19 11:49:32;;;;;;;10.27;5.25;;;3.10;99.90;;;;;;5090956;28;20024;-77
2022/11/19 11:52:10;;;;;;;6.32;3.55;;;3.10;99.90;;;;;;5089362;28;20119;-75
2022/11/19 11:54:37;;;;;;;9.82;4.93;;;3.10;99.90;;;;;;5089695;28;20028;-76
2022/11/19 11:57:16;;;;;;;;;;;3.10;99.90;;;;;;5086697;28;20027;-76
2022/11/19 11:59:42;;;;;;;10.35;4.38;;;3.10;99.90;;;;;;5091458;28;19916;-76
2022/11/19 12:02:19;;;;;;;6.87;3.30;;;3.10;99.90;;;;;;5091084;28;20020;-77
2022/11/19 12:04:45;;;;;;;9.02;4.38;;;3.20;99.90;;;;;;5087545;28;20177;-80
2022/11/19 12:07:35;;;;;;;6.90;3.87;;;3.20;99.90;;;;;;5084396;28;20118;-75
2022/11/19 12:10:13;;;;;;;10.20;4.25;;;3.20;99.90;;;;;;5082177;28;20025;-76
2022/11/19 12:13:08;;;;;;;18.27;3.30;;;3.30;99.90;;;;;;5086505;28;20074;-78
2022/11/19 12:16:01;;;;;;;7.93;3.63;;;3.40;99.90;;;;;;5081291;28;20346;-75
2022/11/19 12:18:32;;;;;;;7.32;3.63;;;3.30;99.90;;;;;;5085560;28;20031;-79
2022/11/19 12:21:35;;;;;;;9.00;4.22;;;3.30;99.90;;;;;;5085205;28;20022;-78
2022/11/19 12:24:10;;;;;;;5.57;2.72;;;3.40;99.90;;;;;;5066377;28;20040;-81
2022/11/19 12:26:55;;;;;;;9.05;4.47;;;3.40;99.90;;;;;;5082888;28;21414;-76
2022/11/19 12:29:33;;;;;;;10.68;4.40;;;3.40;99.90;;;;;;5079645;28;20048;-79
2022/11/19 12:32:06;;;;;;;10.50;4.13;;;3.50;99.90;;;;;;5085911;28;20312;-76
2022/11/19 12:35:09;;;;;;;9.70;3.63;;;3.60;99.90;;;;;;5086901;28;20040;-80
2022/11/19 12:37:56;;;;;;;9.55;4.25;;;3.60;99.90;;;;;;5051087;28;20047;-76
2022/11/19 12:41:01;;;;;;;7.03;3.45;;;3.70;99.90;;;;;;5055389;28;20045;-78
2022/11/19 12:43:45;;;;;;;6.82;3.78;;;3.70;99.90;;;;;;5031196;28;20412;-79
2022/11/19 12:46:32;;;;;;;6.72;3.83;;;3.80;99.90;;;;;;5054306;28;20482;-75
2022/11/19 12:49:25;;;;;;;6.55;3.30;;;3.90;99.90;;;;;;5049512;28;20112;-76
2022/11/19 12:52:16;;;;;;;4.00;1.70;;;3.90;99.90;;;;;;5049038;28;20032;-79
2022/11/19 12:54:54;;;;;;;6.05;3.47;;;3.90;99.90;;;;;;5026262;28;20103;-76
2022/11/19 12:57:42;;;;;;;7.80;3.47;;;3.90;99.90;;;;;;5032725;28;20017;-76
2022/11/19 13:00:22;;;;;;;7.35;3.60;;;4.00;99.90;;;;;;5030735;28;20033;-78
2022/11/19 13:02:54;;;;;;;7.05;3.38;;;3.90;99.90;;;;;;5048228;28;20064;-76
2022/11/19 13:05:46;;;;;;;8.60;3.78;;;3.90;99.90;;;;;;5053109;28;20056;-80
2022/11/19 13:08:18;;;;;;;4.78;2.83;;;3.90;99.90;;;;;;5043044;28;20041;-78
2022/11/19 13:11:24;;;;;;;16.48;4.28;;;3.90;99.90;;;;;;5051558;28;20390;-79
2022/11/19 13:14:25;;;;;;;4.70;2.90;;;3.80;99.90;;;;;;5081187;28;20094;-78
2022/11/19 13:16:54;;;;;;;7.18;3.60;;;3.80;99.90;;;;;;5066337;28;20435;-76
2022/11/19 13:19:33;;;;;;;6.10;3.00;;;3.80;99.90;;;;;;5088252;28;20319;-79
2022/11/19 13:22:26;;;;;;;5.68;3.45;;;3.70;99.90;;;;;;5092714;28;20047;-76
2022/11/19 13:24:56;;;;;;;7.30;3.30;;;3.70;99.90;;;;;;5088520;28;20487;-76
2022/11/19 13:27:25;;;;;;;7.68;2.85;;;3.60;99.90;;;;;;5088675;28;20153;-77
2022/11/19 13:30:17;;;;;;;5.88;3.03;;;3.60;99.90;;;;;;5092776;28;20031;-78